createdAt,value
2023-02-27T00:01:55.264Z,17.33
2023-02-27T00:04:22.116Z,21.07
2023-02-27T00:06:49.020Z,19.20
2023-02-27T00:09:15.813Z,21.43
2023-02-27T00:11:43.402Z,24.33
2023-02-27T00:14:10.239Z,24.27
2023-02-27T00:16:37.084Z,24.37
2023-02-27T00:19:04.912Z,25.27
2023-02-27T00:21:32.118Z,21.90
2023-02-27T00:23:58.903Z,22.50
2023-02-27T00:26:25.748Z,22.57
2023-02-27T00:28:52.749Z,17.97
2023-02-27T00:31:19.652Z,20.07
2023-02-27T00:33:46.549Z,21.10
2023-02-27T00:36:13.402Z,20.80
2023-02-27T00:38:40.230Z,20.37
2023-02-27T00:41:07.068Z,27.20
2023-02-27T00:43:33.879Z,22.10
2023-02-27T00:46:00.664Z,23.43
2023-02-27T00:48:27.442Z,23.80
2023-02-27T00:50:54.288Z,24.10
2023-02-27T00:53:21.195Z,26.33
2023-02-27T00:55:48.083Z,23.10
2023-02-27T00:58:14.893Z,24.47
2023-02-27T01:00:41.750Z,22.90
2023-02-27T01:03:08.624Z,20.67
2023-02-27T01:05:35.603Z,20.13
2023-02-27T01:08:02.374Z,22.30
2023-02-27T01:10:29.217Z,18.10
2023-02-27T01:12:56.314Z,21.70
2023-02-27T01:15:23.092Z,19.80
2023-02-27T01:17:49.953Z,21.97
2023-02-27T01:20:17.603Z,20.87
2023-02-27T01:22:44.401Z,24.93
2023-02-27T01:25:11.265Z,21.07
2023-02-27T01:27:38.123Z,21.37
2023-02-27T01:30:05.494Z,19.37
2023-02-27T01:32:32.472Z,20.10
2023-02-27T01:34:59.733Z,19.13
2023-02-27T01:37:26.562Z,17.23
2023-02-27T01:39:53.408Z,23.83
2023-02-27T01:42:22.354Z,15.60
2023-02-27T01:45:11.041Z,16.67
2023-02-27T01:47:45.878Z,19.47
2023-02-27T01:50:12.778Z,15.63
2023-02-27T01:52:39.661Z,16.93
2023-02-27T01:55:08.634Z,14.90
2023-02-27T01:57:35.892Z,16.47
2023-02-27T02:00:02.921Z,14.30
2023-02-27T02:02:35.024Z,13.40
2023-02-27T02:05:01.862Z,12.40
2023-02-27T02:07:28.622Z,14.03
2023-02-27T02:09:57.447Z,13.33
2023-02-27T02:12:26.890Z,10.97
2023-02-27T02:14:53.749Z,11.37
2023-02-27T02:17:44.185Z,13.60
2023-02-27T02:20:28.151Z,13.73
2023-02-27T02:23:21.997Z,11.87
2023-02-27T02:26:07.311Z,10.23
2023-02-27T02:28:43.019Z,12.30
2023-02-27T02:31:28.714Z,9.47
2023-02-27T02:34:20.020Z,9.97
2023-02-27T02:39:34.960Z,8.23
2023-02-27T02:42:22.670Z,9.70
2023-02-27T02:44:55.213Z,8.90
2023-02-27T02:47:33.664Z,11.30
2023-02-27T02:50:39.231Z,13.63
2023-02-27T02:53:36.938Z,10.10
2023-02-27T02:56:11.548Z,20.37
2023-02-27T02:58:44.126Z,26.50
2023-02-27T03:01:17.143Z,12.43
2023-02-27T03:03:47.928Z,8.43
2023-02-27T03:06:18.205Z,9.45
2023-02-27T03:08:49.609Z,10.25
2023-02-27T03:11:16.436Z,10.20
2023-02-27T03:13:54.273Z,11.03
2023-02-27T03:16:26.307Z,12.27
2023-02-27T03:19:02.269Z,16.23
2023-02-27T03:21:38.901Z,15.17
2023-02-27T03:24:07.998Z,11.80
2023-02-27T03:26:36.894Z,10.33
2023-02-27T03:29:08.398Z,11.77
2023-02-27T03:31:40.392Z,13.03
2023-02-27T03:34:21.292Z,14.90
2023-02-27T03:37:14.221Z,13.82
2023-02-27T03:39:55.451Z,16.53
2023-02-27T03:42:31.225Z,12.23
2023-02-27T03:45:28.611Z,11.97
2023-02-27T03:47:55.388Z,12.30
2023-02-27T03:50:22.234Z,11.03
2023-02-27T03:52:49.039Z,10.67
2023-02-27T03:55:28.082Z,13.47
2023-02-27T03:57:54.902Z,11.97
2023-02-27T04:00:23.033Z,12.57
2023-02-27T04:02:51.627Z,14.00
2023-02-27T04:05:19.151Z,14.93
2023-02-27T04:08:31.637Z,13.03
2023-02-27T04:11:07.416Z,14.57
2023-02-27T04:14:09.553Z,13.67
2023-02-27T04:16:53.559Z,15.90
2023-02-27T04:19:39.106Z,15.47
2023-02-27T04:22:27.464Z,14.70
2023-02-27T04:25:20.449Z,15.40
2023-02-27T04:28:11.909Z,11.67
2023-02-27T04:30:58.989Z,12.80
2023-02-27T04:33:28.870Z,14.97
2023-02-27T04:36:05.842Z,15.20
2023-02-27T04:38:40.298Z,92.93
2023-02-27T04:41:23.599Z,32.73
2023-02-27T04:43:51.552Z,40.60
2023-02-27T04:46:19.367Z,29.73
2023-02-27T04:49:09.450Z,18.50
2023-02-27T04:51:44.503Z,19.37
2023-02-27T04:54:12.973Z,16.43
2023-02-27T04:56:43.524Z,21.13
2023-02-27T04:59:13.710Z,18.67
2023-02-27T05:01:41.966Z,17.75
2023-02-27T05:04:10.587Z,28.40
2023-02-27T05:06:38.356Z,28.63
2023-02-27T05:09:35.118Z,21.47
2023-02-27T05:12:06.604Z,20.17
2023-02-27T05:14:41.428Z,16.23
2023-02-27T05:17:15.630Z,19.73
2023-02-27T05:19:42.718Z,19.43
2023-02-27T05:22:30.473Z,16.40
2023-02-27T05:25:02.367Z,24.57
2023-02-27T05:27:55.049Z,30.43
2023-02-27T05:30:31.982Z,24.23
2023-02-27T05:33:01.952Z,21.90
2023-02-27T05:35:30.220Z,21.40
2023-02-27T05:38:10.941Z,19.67
2023-02-27T05:40:39.848Z,20.42
2023-02-27T05:43:25.143Z,22.40
2023-02-27T05:45:56.209Z,17.43
2023-02-27T05:48:26.253Z,14.97
2023-02-27T05:50:53.121Z,14.10
2023-02-27T05:53:21.381Z,15.73
2023-02-27T05:55:53.121Z,15.30
2023-02-27T05:58:21.859Z,15.60
2023-02-27T06:01:03.072Z,12.83
2023-02-27T06:03:31.365Z,12.70
2023-02-27T06:05:59.150Z,13.90
2023-02-27T06:08:26.021Z,11.93
2023-02-27T06:10:52.854Z,14.53
2023-02-27T06:13:19.628Z,14.93
2023-02-27T06:15:46.747Z,14.40
2023-02-27T06:18:14.828Z,13.73
2023-02-27T06:20:41.834Z,14.27
2023-02-27T06:23:08.821Z,14.47
2023-02-27T06:25:35.592Z,18.57
2023-02-27T06:28:02.477Z,15.87
2023-02-27T06:30:29.603Z,14.50
2023-02-27T06:32:56.517Z,18.00
2023-02-27T06:35:23.457Z,15.43
2023-02-27T06:37:50.336Z,15.63
2023-02-27T06:40:19.048Z,19.73
2023-02-27T06:42:46.029Z,15.47
2023-02-27T06:45:13.467Z,15.73
2023-02-27T06:47:41.250Z,15.80
2023-02-27T06:50:09.002Z,16.90
2023-02-27T06:52:36.164Z,17.47
2023-02-27T06:55:04.528Z,15.50
2023-02-27T06:57:31.908Z,17.03
2023-02-27T06:59:58.719Z,18.03
2023-02-27T07:02:25.749Z,16.93
2023-02-27T07:04:53.005Z,16.17
2023-02-27T07:07:32.545Z,16.60
2023-02-27T07:10:04.228Z,21.00
2023-02-27T07:12:31.045Z,20.57
2023-02-27T07:14:57.989Z,13.90
2023-02-27T07:17:25.262Z,16.13
2023-02-27T07:19:52.120Z,21.53
2023-02-27T07:22:18.887Z,20.47
2023-02-27T07:24:45.710Z,16.97
2023-02-27T07:27:12.581Z,15.60
2023-02-27T07:29:39.381Z,18.53
2023-02-27T07:32:06.286Z,16.40
2023-02-27T07:34:33.121Z,20.80
2023-02-27T07:36:59.889Z,21.57
2023-02-27T07:39:26.717Z,20.67
2023-02-27T07:41:53.688Z,17.87
2023-02-27T07:44:20.542Z,25.27
2023-02-27T07:46:47.518Z,18.30
2023-02-27T07:49:14.548Z,16.03
2023-02-27T07:51:41.536Z,25.77
2023-02-27T07:54:08.483Z,18.50
2023-02-27T07:56:35.416Z,19.90
2023-02-27T07:59:02.396Z,20.80
2023-02-27T08:01:29.185Z,23.67
2023-02-27T08:03:56.597Z,22.33
2023-02-27T08:06:23.659Z,19.83
2023-02-27T08:08:51.238Z,18.90
2023-02-27T08:11:18.580Z,19.80
2023-02-27T08:14:02.733Z,21.90
2023-02-27T08:16:30.941Z,30.13
2023-02-27T08:18:58.235Z,45.13
2023-02-27T08:21:25.503Z,21.63
2023-02-27T08:23:52.519Z,37.30
2023-02-27T08:26:19.331Z,33.77
2023-02-27T08:28:46.137Z,28.13
2023-02-27T08:31:13.302Z,24.83
2023-02-27T08:33:40.233Z,27.43
2023-02-27T08:36:08.105Z,21.90
2023-02-27T08:38:34.994Z,25.77
2023-02-27T08:41:01.829Z,25.37
2023-02-27T08:43:28.678Z,27.33
2023-02-27T08:45:55.576Z,24.00
2023-02-27T08:48:24.858Z,26.97
2023-02-27T08:50:51.957Z,21.93
2023-02-27T08:53:18.931Z,24.43
2023-02-27T08:55:50.059Z,23.30
2023-02-27T08:58:18.182Z,26.30
2023-02-27T09:00:46.348Z,20.03
2023-02-27T09:03:13.266Z,27.00
2023-02-27T09:05:40.727Z,20.90
2023-02-27T09:08:07.646Z,45.77
2023-02-27T09:10:34.623Z,44.80
2023-02-27T09:13:01.623Z,55.00
2023-02-27T09:15:28.582Z,28.33
2023-02-27T09:18:02.913Z,24.13
2023-02-27T09:20:31.822Z,24.03
2023-02-27T09:22:59.452Z,24.60
2023-02-27T09:25:26.639Z,23.23
2023-02-27T09:27:53.539Z,25.70
2023-02-27T09:30:20.505Z,25.77
2023-02-27T09:32:47.370Z,24.83
2023-02-27T09:35:17.169Z,27.97
2023-02-27T09:37:44.101Z,25.17
2023-02-27T09:40:27.032Z,26.43
2023-02-27T09:42:57.068Z,19.80
2023-02-27T09:45:28.546Z,25.73
2023-02-27T09:48:04.879Z,20.27
2023-02-27T09:50:33.697Z,26.07
2023-02-27T09:53:00.897Z,43.27
2023-02-27T09:55:30.112Z,38.20
2023-02-27T09:58:26.240Z,32.33
2023-02-27T10:01:14.894Z,18.27
2023-02-27T10:04:05.234Z,36.57
2023-02-27T10:06:40.032Z,33.67
2023-02-27T10:09:26.414Z,37.53
2023-02-27T10:12:17.377Z,37.97
2023-02-27T10:14:56.747Z,33.67
2023-02-27T10:17:32.002Z,23.37
2023-02-27T10:19:58.971Z,21.97
2023-02-27T10:22:31.124Z,36.40
2023-02-27T10:25:03.672Z,51.37
2023-02-27T10:27:30.817Z,40.93
2023-02-27T10:30:28.572Z,17.87
2023-02-27T10:33:10.734Z,17.40
2023-02-27T10:38:34.066Z,20.20
2023-02-27T10:41:01.444Z,23.10
2023-02-27T10:43:28.304Z,23.37
2023-02-27T10:45:55.293Z,23.40
2023-02-27T10:48:23.118Z,19.73
2023-02-27T10:50:52.118Z,19.13
2023-02-27T10:53:19.070Z,18.23
2023-02-27T10:55:58.286Z,21.87
2023-02-27T10:58:25.109Z,21.57
2023-02-27T11:00:59.384Z,20.67
2023-02-27T11:03:33.092Z,20.00
2023-02-27T11:06:07.287Z,22.83
2023-02-27T11:08:34.375Z,23.33
2023-02-27T11:11:11.905Z,19.80
2023-02-27T11:13:44.947Z,22.97
2023-02-27T11:16:21.549Z,26.97
2023-02-27T11:18:49.408Z,23.00
2023-02-27T11:21:22.770Z,19.63
2023-02-27T11:23:50.373Z,20.30
2023-02-27T11:26:23.317Z,22.07
2023-02-27T11:29:11.936Z,23.33
2023-02-27T11:31:39.192Z,22.10
2023-02-27T11:34:06.178Z,17.57
2023-02-27T11:36:49.115Z,27.70
2023-02-27T11:39:35.161Z,20.83
2023-02-27T11:42:31.405Z,23.83
2023-02-27T11:45:07.390Z,35.10
2023-02-27T11:47:39.994Z,30.43
2023-02-27T11:50:06.793Z,25.17
2023-02-27T11:52:49.337Z,28.50
2023-02-27T11:55:18.935Z,23.50
2023-02-27T11:57:47.214Z,23.50
2023-02-27T12:00:41.892Z,24.73
2023-02-27T12:03:17.634Z,24.53
2023-02-27T12:05:48.743Z,24.03
2023-02-27T12:08:28.855Z,27.03
2023-02-27T12:11:12.476Z,30.03
2023-02-27T12:13:42.488Z,44.00
2023-02-27T12:16:42.474Z,41.33
2023-02-27T12:19:20.079Z,37.77
2023-02-27T12:21:56.691Z,47.90
2023-02-27T12:24:34.303Z,25.30
2023-02-27T12:27:18.445Z,37.50
2023-02-27T12:30:02.778Z,35.00
2023-02-27T12:32:38.606Z,30.33
2023-02-27T12:35:17.505Z,28.10
2023-02-27T12:37:44.281Z,25.67
2023-02-27T12:40:14.868Z,27.50
2023-02-27T12:42:50.672Z,25.45
2023-02-27T12:45:35.702Z,28.70
2023-02-27T12:48:38.173Z,27.73
2023-02-27T12:51:23.729Z,31.37
2023-02-27T12:54:00.547Z,31.07
2023-02-27T12:56:45.617Z,34.60
2023-02-27T12:59:27.402Z,40.33
2023-02-27T13:01:58.585Z,30.40
2023-02-27T13:04:25.360Z,28.87
2023-02-27T13:07:18.555Z,30.07
2023-02-27T13:09:57.187Z,30.17
2023-02-27T13:12:39.309Z,34.10
2023-02-27T13:15:06.809Z,30.47
2023-02-27T13:18:02.612Z,35.80
2023-02-27T13:20:35.676Z,36.97
2023-02-27T13:23:23.487Z,31.90
2023-02-27T13:25:51.052Z,32.23
2023-02-27T13:28:20.247Z,31.20
2023-02-27T13:31:08.944Z,31.60
2023-02-27T13:33:41.830Z,32.50
2023-02-27T13:36:21.872Z,34.27
2023-02-27T13:38:56.913Z,35.47
2023-02-27T13:41:23.629Z,38.87
2023-02-27T13:43:52.803Z,36.33
2023-02-27T13:46:26.426Z,33.83
2023-02-27T13:49:05.973Z,33.20
2023-02-27T13:51:35.717Z,30.17
2023-02-27T13:54:14.936Z,36.20
2023-02-27T13:56:51.026Z,36.87
2023-02-27T13:59:23.998Z,37.27
2023-02-27T14:01:52.471Z,42.63
2023-02-27T14:04:19.212Z,41.87
2023-02-27T14:06:46.098Z,36.27
2023-02-27T14:09:15.421Z,45.73
2023-02-27T14:11:42.446Z,54.60
2023-02-27T14:14:30.657Z,42.50
2023-02-27T14:16:57.785Z,41.80
2023-02-27T14:19:27.977Z,43.50
2023-02-27T14:22:03.930Z,40.20
2023-02-27T14:24:49.774Z,46.13
2023-02-27T14:27:29.292Z,43.77
2023-02-27T14:30:03.697Z,39.03
2023-02-27T14:32:33.159Z,41.77
2023-02-27T14:34:59.924Z,44.13
2023-02-27T14:37:26.721Z,41.90
2023-02-27T14:39:54.640Z,36.77
2023-02-27T14:42:30.388Z,45.87
2023-02-27T14:44:57.303Z,42.03
2023-02-27T14:47:24.938Z,51.90
2023-02-27T14:49:51.663Z,40.63
2023-02-27T14:52:26.564Z,45.13
2023-02-27T14:54:53.737Z,43.57
2023-02-27T14:57:23.793Z,58.00
2023-02-27T14:59:52.206Z,55.13
2023-02-27T15:02:28.188Z,50.47
2023-02-27T15:05:00.901Z,48.57
2023-02-27T15:07:29.550Z,52.97
2023-02-27T15:09:57.489Z,43.40
2023-02-27T15:12:24.540Z,42.37
2023-02-27T15:15:02.407Z,41.63
2023-02-27T15:17:37.819Z,44.17
2023-02-27T15:20:23.605Z,39.67
2023-02-27T15:22:50.964Z,42.60
2023-02-27T15:25:29.435Z,49.00
2023-02-27T15:28:23.309Z,39.87
2023-02-27T15:30:50.551Z,42.40
2023-02-27T15:33:17.480Z,44.07
2023-02-27T15:35:45.477Z,43.00
2023-02-27T15:38:25.562Z,43.73
2023-02-27T15:40:52.490Z,48.43
2023-02-27T15:43:19.455Z,48.80
2023-02-27T15:45:46.332Z,49.43
2023-02-27T15:48:14.117Z,53.93
2023-02-27T15:50:46.033Z,50.23
2023-02-27T15:53:14.918Z,49.10
2023-02-27T15:55:43.323Z,47.30
2023-02-27T15:58:24.862Z,47.13
2023-02-27T16:01:00.626Z,57.07
2023-02-27T16:03:33.066Z,59.37
2023-02-27T16:06:00.002Z,57.00
2023-02-27T16:08:27.405Z,56.37
2023-02-27T16:10:54.223Z,61.83
2023-02-27T16:13:39.669Z,57.03
2023-02-27T16:16:21.742Z,56.60
2023-02-27T16:18:50.481Z,52.00
2023-02-27T16:21:24.685Z,48.00
2023-02-27T16:23:51.573Z,52.97
2023-02-27T16:26:36.698Z,44.60
2023-02-27T16:29:16.086Z,41.47
2023-02-27T16:31:53.293Z,44.30
2023-02-27T16:34:45.511Z,41.47
2023-02-27T16:37:42.153Z,40.17
2023-02-27T16:40:13.226Z,39.43
2023-02-27T16:42:40.590Z,39.47
2023-02-27T16:45:08.521Z,39.13
2023-02-27T16:47:35.376Z,38.33
2023-02-27T16:50:02.198Z,43.33
2023-02-27T16:52:29.039Z,58.13
2023-02-27T16:54:55.851Z,64.27
2023-02-27T16:57:27.691Z,52.97
2023-02-27T16:59:54.525Z,50.63
2023-02-27T17:02:21.371Z,45.00
2023-02-27T17:04:50.003Z,51.33
2023-02-27T17:07:17.740Z,46.93
2023-02-27T17:09:45.155Z,42.57
2023-02-27T17:12:12.017Z,40.00
2023-02-27T17:14:38.872Z,42.37
2023-02-27T17:17:06.915Z,39.47
2023-02-27T17:19:33.953Z,36.83
2023-02-27T17:22:00.792Z,44.53
2023-02-27T17:24:27.678Z,45.33
2023-02-27T17:26:54.479Z,56.83
2023-02-27T17:29:21.589Z,47.63
2023-02-27T17:31:48.580Z,53.37
2023-02-27T17:34:16.801Z,51.23
2023-02-27T17:36:43.615Z,45.33
2023-02-27T17:39:12.250Z,51.87
2023-02-27T17:41:39.542Z,62.83
2023-02-27T17:44:06.431Z,59.33
2023-02-27T17:46:33.388Z,51.20
2023-02-27T17:49:00.640Z,53.43
2023-02-27T17:51:28.504Z,48.87
2023-02-27T17:53:55.336Z,45.80
2023-02-27T17:56:22.059Z,51.60
2023-02-27T17:58:49.099Z,55.10
2023-02-27T18:01:20.322Z,79.80
2023-02-27T18:03:47.424Z,82.00
2023-02-27T18:06:14.693Z,80.70
2023-02-27T18:08:41.580Z,63.73
2023-02-27T18:11:12.756Z,74.63
2023-02-27T18:13:39.669Z,65.70
2023-02-27T18:16:06.767Z,63.50
2023-02-27T18:18:36.519Z,67.90
2023-02-27T18:21:17.299Z,52.50
2023-02-27T18:23:44.428Z,43.60
2023-02-27T18:26:32.702Z,52.93
2023-02-27T18:29:01.516Z,65.80
2023-02-27T18:31:30.756Z,60.83
2023-02-27T18:33:57.602Z,58.20
2023-02-27T18:36:24.799Z,52.33
2023-02-27T18:38:51.655Z,47.53
2023-02-27T18:41:18.407Z,53.73
2023-02-27T18:43:45.183Z,55.90
2023-02-27T18:46:12.854Z,45.70
2023-02-27T18:48:46.120Z,50.17
2023-02-27T18:51:14.619Z,55.33
2023-02-27T18:53:43.659Z,49.50
2023-02-27T18:56:10.685Z,44.27
2023-02-27T18:58:37.618Z,41.43
2023-02-27T19:01:04.905Z,45.80
2023-02-27T19:03:31.943Z,52.57
2023-02-27T19:05:59.157Z,50.00
2023-02-27T19:08:29.155Z,51.77
2023-02-27T19:10:56.952Z,51.80
2023-02-27T19:13:24.326Z,49.03
2023-02-27T19:15:51.374Z,46.37
2023-02-27T19:18:18.183Z,51.43
2023-02-27T19:20:45.062Z,51.00
2023-02-27T19:23:11.806Z,48.50
2023-02-27T19:25:38.638Z,54.43
2023-02-27T19:28:06.487Z,58.23
2023-02-27T19:30:33.687Z,45.70
2023-02-27T19:33:00.585Z,45.63
2023-02-27T19:35:27.467Z,41.27
2023-02-27T19:37:58.132Z,43.30
2023-02-27T19:40:25.267Z,38.17
2023-02-27T19:42:52.258Z,34.73
2023-02-27T19:45:19.041Z,36.53
2023-02-27T19:47:46.759Z,36.53
2023-02-27T19:50:13.810Z,31.33
2023-02-27T19:52:40.596Z,33.23
2023-02-27T19:55:07.900Z,32.67
2023-02-27T19:57:35.547Z,39.70
2023-02-27T20:00:04.262Z,38.37
2023-02-27T20:02:31.277Z,34.10
2023-02-27T20:04:58.269Z,39.10
2023-02-27T20:07:28.995Z,38.17
2023-02-27T20:09:56.292Z,31.17
2023-02-27T20:12:23.307Z,37.87
2023-02-27T20:14:50.291Z,35.17
2023-02-27T20:17:17.311Z,38.20
2023-02-27T20:19:44.076Z,33.03
2023-02-27T20:22:13.528Z,34.47
2023-02-27T20:24:40.374Z,33.80
2023-02-27T20:27:07.376Z,32.73
2023-02-27T20:29:34.321Z,36.80
2023-02-27T20:32:01.469Z,37.53
2023-02-27T20:34:28.495Z,41.53
2023-02-27T20:36:55.420Z,38.33
2023-02-27T20:39:22.339Z,35.57
2023-02-27T20:41:49.344Z,42.53
2023-02-27T20:44:16.247Z,35.10
2023-02-27T20:46:43.574Z,42.80
2023-02-27T20:49:11.383Z,42.13
2023-02-27T20:51:38.990Z,39.07
2023-02-27T20:54:07.980Z,41.23
2023-02-27T20:56:36.597Z,38.60
2023-02-27T20:59:04.935Z,38.20
2023-02-27T21:01:32.258Z,38.53
2023-02-27T21:03:59.491Z,33.43
2023-02-27T21:06:26.459Z,38.87
2023-02-27T21:08:55.576Z,40.53
2023-02-27T21:11:27.107Z,39.77
2023-02-27T21:13:58.083Z,42.27
2023-02-27T21:16:27.681Z,39.22
2023-02-27T21:18:56.484Z,41.27
2023-02-27T21:21:25.757Z,43.03
2023-02-27T21:23:52.626Z,43.93
2023-02-27T21:26:21.594Z,43.33
2023-02-27T21:28:52.662Z,40.70
2023-02-27T21:31:20.951Z,45.90
2023-02-27T21:33:48.267Z,41.57
2023-02-27T21:36:15.264Z,42.97
2023-02-27T21:38:42.168Z,43.70
2023-02-27T21:41:11.712Z,41.23
2023-02-27T21:43:40.332Z,41.97
2023-02-27T21:46:11.328Z,42.33
2023-02-27T21:51:05.161Z,38.27
2023-02-27T21:53:32.102Z,43.23
2023-02-27T21:56:05.927Z,47.83
2023-02-27T21:58:32.969Z,41.03
2023-02-27T22:00:59.874Z,46.63
2023-02-27T22:03:34.217Z,44.63
2023-02-27T22:06:01.836Z,50.53
2023-02-27T22:08:28.755Z,48.07
2023-02-27T22:10:56.985Z,52.07
2023-02-27T22:13:24.057Z,50.90
2023-02-27T22:15:50.947Z,52.00
2023-02-27T22:18:17.802Z,49.30
2023-02-27T22:20:44.584Z,48.40
2023-02-27T22:23:11.474Z,47.77
2023-02-27T22:25:38.347Z,49.53
2023-02-27T22:28:05.175Z,48.57
2023-02-27T22:30:31.993Z,52.60
2023-02-27T22:32:58.743Z,49.20
2023-02-27T22:35:25.532Z,54.47
2023-02-27T22:37:52.262Z,48.10
2023-02-27T22:40:20.455Z,50.60
2023-02-27T22:42:48.131Z,51.10
2023-02-27T22:45:15.139Z,48.80
2023-02-27T22:47:41.943Z,47.93
2023-02-27T22:50:09.431Z,53.47
2023-02-27T22:52:36.792Z,45.10
2023-02-27T22:55:03.846Z,51.90
2023-02-27T22:57:30.546Z,45.67
2023-02-27T22:59:57.360Z,53.53
2023-02-27T23:02:24.213Z,51.17
2023-02-27T23:04:51.038Z,47.10
2023-02-27T23:07:18.035Z,52.73
2023-02-27T23:09:44.959Z,51.13
2023-02-27T23:12:11.747Z,50.07
2023-02-27T23:14:38.560Z,52.30
2023-02-27T23:17:05.350Z,45.13
2023-02-27T23:19:33.137Z,48.20
2023-02-27T23:22:00.032Z,48.83
2023-02-27T23:24:26.886Z,47.30
2023-02-27T23:26:53.704Z,46.50
2023-02-27T23:29:20.670Z,47.60
2023-02-27T23:31:48.090Z,43.83
2023-02-27T23:34:14.982Z,41.43
2023-02-27T23:36:41.816Z,43.27
2023-02-27T23:39:08.769Z,44.93
2023-02-27T23:41:35.675Z,43.97
2023-02-27T23:44:03.363Z,42.27
2023-02-27T23:46:30.809Z,42.77
2023-02-27T23:49:01.026Z,42.97
2023-02-27T23:51:30.319Z,43.42
2023-02-27T23:53:57.750Z,39.53
2023-02-27T23:56:28.858Z,46.87
2023-02-27T23:59:03.613Z,55.97
